»·PEaware :: N12SA KRAL-KLAS

N12SA :: KRAL-KLAS

FLIGHT INFORMATION

Flight Status: Arrived
Operator: Privately registered:
United States
More flights under this callsign
Pilot: Johnny M. (21174)
Aircraft: SOCATA TBM-900
(TBM9)
More flights by this aircraft type
Origin: KRAL Riverside Mun
United States
Destination: KLAS McCarran Intl
United States
More flights between these airports :: More routes between these airports
Route: +RAL1 PDZ V442 APLES V394 DAG CRESO4
File this flight plan on PilotEdge
Remarks:
Altitude:
(Current/Filed)
20,000ft
Speed:
(Current/Filed)
265kts
Departed: 17-May-20 09:46 AM
Arrived: 17-May-20 10:34 AM
Distance/Time
Traveled:
170nm/0:48
Distance/Time
To Go:
Arrived

Flight Plot

Page will automatically refresh every two minutes.


Map Options




Map Legend


Flown Route
Filed Route
Departure Airport
Arrival Airport
Navaid (VOR, NDB)
Fix

Horizontal Profiles

Position Reports

Time Latitude Longitude Heading Altitude Ground
Speed
17-May-20 09:23 33.951110 -117.444323 282 819ft 0kts
17-May-20 09:24 33.951110 -117.444324 282 819ft 0kts
17-May-20 09:29 33.951111 -117.444321 282 819ft 0kts
17-May-20 09:30 33.951111 -117.444321 282 819ft 0kts
17-May-20 09:31 33.951111 -117.444321 282 819ft 0kts
17-May-20 09:32 33.951111 -117.444321 282 819ft 0kts
17-May-20 09:33 33.951111 -117.444321 282 819ft 0kts
17-May-20 09:34 33.951111 -117.444321 282 819ft 0kts
17-May-20 09:35 33.951111 -117.444321 282 819ft 0kts
17-May-20 09:36 33.951111 -117.444321 282 819ft 0kts
17-May-20 09:37 33.951111 -117.444321 282 819ft 0kts
17-May-20 09:38 33.951111 -117.444321 282 819ft 0kts
17-May-20 09:39 33.951111 -117.444321 282 819ft 0kts
17-May-20 09:40 33.951241 -117.444191 111 819ft 11kts
17-May-20 09:41 33.950634 -117.439136 102 819ft 11kts
17-May-20 09:42 33.949845 -117.434990 97 819ft 13kts
17-May-20 09:43 33.949931 -117.434748 345 819ft 0kts
17-May-20 09:44 33.950174 -117.434804 9 819ft 6kts
17-May-20 09:45 33.953483 -117.449517 281 1241ft 109kts
17-May-20 09:46 33.958692 -117.487138 280 3371ft 116kts
17-May-20 09:47 33.964843 -117.526876 282 5615ft 127kts
17-May-20 09:48 33.989260 -117.528662 51 8657ft 148kts
17-May-20 09:49 34.021767 -117.471744 51 9006ft 251kts
17-May-20 09:50 34.083275 -117.430713 20 8988ft 263kts
17-May-20 09:51 34.148273 -117.391889 23 9081ft 263kts
17-May-20 09:52 34.205292 -117.357477 21 11373ft 223kts
17-May-20 09:53 34.258135 -117.325566 20 13733ft 209kts
17-May-20 09:54 34.311328 -117.293414 19 15795ft 220kts
17-May-20 09:55 34.367336 -117.259502 18 17611ft 229kts
17-May-20 09:56 34.425784 -117.224071 18 19224ft 238kts
17-May-20 09:57 34.485814 -117.187598 18 20677ft 244kts
17-May-20 09:58 34.551813 -117.144396 35 20990ft 307kts
17-May-20 09:59 34.612042 -117.062441 45 20976ft 334kts
17-May-20 10:01 34.674251 -116.976902 44 20957ft 338kts
17-May-20 10:02 34.736430 -116.891270 44 20941ft 335kts
17-May-20 10:03 34.798159 -116.806048 45 20937ft 333kts
17-May-20 10:04 34.859410 -116.721260 44 20938ft 333kts
17-May-20 10:05 34.920898 -116.635942 44 20939ft 333kts
17-May-20 10:06 34.976997 -116.545557 59 20944ft 337kts
17-May-20 10:07 35.021827 -116.444650 59 20947ft 337kts
17-May-20 10:08 35.066372 -116.344151 60 20949ft 338kts
17-May-20 10:09 35.110646 -116.243968 60 20942ft 337kts
17-May-20 10:10 35.155262 -116.142711 60 20942ft 336kts
17-May-20 10:11 35.199651 -116.041672 60 20271ft 334kts
17-May-20 10:12 35.243117 -115.942453 60 18728ft 328kts
17-May-20 10:13 35.286147 -115.843952 60 16723ft 326kts
17-May-20 10:14 35.335877 -115.753400 44 14717ft 317kts
17-May-20 10:15 35.395121 -115.674570 45 12715ft 311kts
17-May-20 10:15 35.442763 -115.610911 45 11556ft 294kts
17-May-20 10:17 35.505622 -115.526746 46 10096ft 277kts
17-May-20 10:18 35.553751 -115.462177 46 10025ft 245kts
17-May-20 10:18 35.592177 -115.410565 46 10028ft 243kts
17-May-20 10:19 35.637791 -115.349197 47 10028ft 242kts
17-May-20 10:21 35.690243 -115.278482 47 10027ft 242kts
17-May-20 10:21 35.728286 -115.227107 47 10027ft 243kts
17-May-20 10:22 35.774044 -115.165283 45 9770ft 243kts
17-May-20 10:23 35.819534 -115.104947 48 8756ft 234kts
17-May-20 10:24 35.863269 -115.045377 48 7758ft 233kts
17-May-20 10:25 35.907007 -114.986572 48 6945ft 223kts
17-May-20 10:26 35.947817 -114.932270 48 6941ft 209kts
17-May-20 10:27 35.987559 -114.879541 47 6945ft 206kts
17-May-20 10:28 36.022634 -114.906728 269 6126ft 201kts
17-May-20 10:29 36.051094 -114.965424 312 4987ft 215kts
17-May-20 10:30 36.075652 -115.026939 260 3743ft 199kts
17-May-20 10:31 36.073730 -115.082257 266 2920ft 143kts
17-May-20 10:32 36.073645 -115.123059 266 2270ft 92kts
17-May-20 10:33 36.073714 -115.142723 278 2184ft 27kts
17-May-20 10:34 36.074748 -115.145958 299 2184ft 0kts
17-May-20 10:35 36.075969 -115.146574 0 2184ft 17kts
17-May-20 10:36 36.078554 -115.147548 313 2184ft 23kts
17-May-20 10:37 36.080948 -115.149378 283 2184ft 0kts
17-May-20 10:38 36.080948 -115.149378 283 2184ft 0kts

Navigation Log

Ident Type
Flight plan parsing failed, navigation log unavailable